Time;durP1;ratioP1;P1;durP2;ratioP2;P2;SDS_P1;SDS_P2;PMS_P1;PMS_P2;Temp;Humidity;BMP_temperature;BMP_pressure;BME280_temperature;BME280_humidity;BME280_pressure;Samples;Min_cycle;Max_cycle;Signal;HPM_P1;HPM_P2
2022/12/06 00:01:14;;;;;;;20.83;11.77;;;5.40;90.30;;;;;;5012104;28;21071;-75
2022/12/06 00:03:40;;;;;;;18.53;11.53;;;5.40;90.20;;;;;;5007227;28;20421;-76
2022/12/06 00:06:12;;;;;;;20.93;11.70;;;5.40;90.30;;;;;;5004695;28;20436;-75
2022/12/06 00:08:38;;;;;;;23.23;11.80;;;5.60;90.10;;;;;;5007881;28;20464;-75
2022/12/06 00:11:09;;;;;;;22.93;11.43;;;5.70;89.90;;;;;;5009747;28;20803;-75
2022/12/06 00:13:35;;;;;;;23.37;12.60;;;5.80;89.60;;;;;;5010350;28;20554;-75
2022/12/06 00:16:06;;;;;;;21.90;11.07;;;5.80;89.30;;;;;;5006505;28;21051;-75
2022/12/06 00:18:32;;;;;;;21.73;11.80;;;5.80;89.30;;;;;;5001533;28;20472;-73
2022/12/06 00:21:28;;;;;;;22.37;12.33;;;5.90;89.30;;;;;;5007241;28;20439;-73
2022/12/06 00:23:58;;;;;;;22.23;10.87;;;5.80;89.00;;;;;;5007590;28;20436;-74
2022/12/06 00:26:24;;;;;;;20.40;10.67;;;5.70;88.90;;;;;;5004828;28;20432;-76
2022/12/06 00:28:55;;;;;;;17.93;10.77;;;5.70;89.00;;;;;;5001488;28;20844;-76
2022/12/06 00:31:22;;;;;;;17.90;10.17;;;5.70;88.90;;;;;;5004140;28;20849;-74
2022/12/06 00:33:48;;;;;;;18.63;9.80;;;5.70;88.30;;;;;;5006351;28;20433;-75
2022/12/06 00:36:17;;;;;;;15.50;9.50;;;5.70;87.80;;;;;;5006260;28;20583;-75
2022/12/06 00:38:43;;;;;;;17.07;10.23;;;5.70;87.10;;;;;;4997755;28;20472;-77
2022/12/06 00:41:14;;;;;;;20.00;10.30;;;5.60;87.00;;;;;;5006086;28;20467;-74
2022/12/06 00:43:40;;;;;;;14.57;8.83;;;5.70;87.40;;;;;;5000098;28;21032;-73
2022/12/06 00:46:09;;;;;;;20.20;9.90;;;5.70;87.40;;;;;;5007584;28;20486;-76
2022/12/06 00:48:35;;;;;;;19.53;9.97;;;5.60;87.00;;;;;;5005718;28;20460;-74
2022/12/06 00:51:01;;;;;;;19.57;10.20;;;5.40;87.30;;;;;;5008700;28;20769;-75
2022/12/06 00:53:27;;;;;;;14.03;9.30;;;5.30;87.60;;;;;;5006421;28;20427;-74
2022/12/06 00:55:54;;;;;;;14.47;9.00;;;5.40;88.10;;;;;;5009243;28;20476;-74
2022/12/06 00:58:20;;;;;;;22.90;11.23;;;5.40;88.40;;;;;;5006477;28;20206;-76
2022/12/06 01:00:46;;;;;;;20.43;10.40;;;5.50;88.60;;;;;;5008519;28;20425;-75
2022/12/06 01:03:12;;;;;;;19.80;10.17;;;5.60;88.70;;;;;;5010152;28;20429;-74
2022/12/06 01:05:48;;;;;;;17.87;9.10;;;5.60;88.70;;;;;;5008249;28;20274;-75
2022/12/06 01:08:16;;;;;;;20.13;9.40;;;5.60;88.60;;;;;;5008334;28;20252;-74
2022/12/06 01:10:41;;;;;;;14.00;7.77;;;5.60;88.30;;;;;;5009870;28;20421;-74
2022/12/06 01:13:07;;;;;;;14.47;8.40;;;5.50;88.10;;;;;;5001928;28;20808;-74
2022/12/06 01:15:36;;;;;;;12.73;8.10;;;5.50;88.00;;;;;;5006512;28;20305;-73
2022/12/06 01:18:03;;;;;;;12.27;7.90;;;5.40;88.10;;;;;;5001560;28;20472;-73
2022/12/06 01:20:29;;;;;;;14.13;7.70;;;5.50;88.00;;;;;;5012813;28;20949;-75
2022/12/06 01:22:54;;;;;;;11.60;7.10;;;5.40;87.80;;;;;;5004243;28;20429;-76
2022/12/06 01:25:21;;;;;;;13.00;7.20;;;5.40;87.80;;;;;;5011131;28;20648;-75
2022/12/06 01:27:46;;;;;;;14.47;7.87;;;5.40;87.80;;;;;;5005317;28;20200;-74
2022/12/06 01:30:12;;;;;;;14.83;7.30;;;5.40;87.80;;;;;;5004880;28;20429;-75
2022/12/06 01:32:38;;;;;;;14.43;6.70;;;5.40;87.80;;;;;;5004392;28;20678;-76
2022/12/06 01:35:04;;;;;;;16.60;6.80;;;5.40;87.60;;;;;;5012603;28;20291;-76
2022/12/06 01:37:29;;;;;;;10.67;6.80;;;5.40;87.40;;;;;;5004197;28;20304;-75
2022/12/06 01:39:55;;;;;;;7.63;5.90;;;5.40;87.30;;;;;;5008930;28;20983;-75
2022/12/06 01:42:21;;;;;;;12.63;6.50;;;5.30;87.10;;;;;;5010541;28;20174;-75
2022/12/06 01:44:50;;;;;;;9.50;6.30;;;5.30;87.40;;;;;;5009597;28;20431;-74
2022/12/06 01:47:21;;;;;;;10.47;6.77;;;5.20;87.40;;;;;;5010370;28;20679;-74
2022/12/06 01:49:56;;;;;;;11.20;6.97;;;5.20;87.40;;;;;;5006909;28;20674;-74
2022/12/06 01:52:25;;;;;;;8.57;5.53;;;5.20;87.40;;;;;;5009529;28;20431;-75
2022/12/06 01:54:52;;;;;;;9.33;5.90;;;5.20;87.60;;;;;;5007923;28;20480;-73
2022/12/06 01:57:18;;;;;;;10.17;6.37;;;5.30;87.30;;;;;;5008147;28;21052;-74
2022/12/06 01:59:44;;;;;;;9.30;5.97;;;5.30;87.10;;;;;;4999984;28;20464;-75
2022/12/06 02:02:10;;;;;;;9.50;5.60;;;5.40;87.10;;;;;;5004827;28;20183;-74
2022/12/06 02:04:36;;;;;;;7.90;5.50;;;5.40;87.00;;;;;;5005684;28;20417;-74
2022/12/06 02:07:04;;;;;;;8.47;5.37;;;5.40;87.00;;;;;;5010848;28;20421;-75
2022/12/06 02:09:29;;;;;;;9.10;5.80;;;5.40;86.90;;;;;;5006724;28;20456;-74
2022/12/06 02:11:55;;;;;;;8.60;6.03;;;5.40;86.90;;;;;;4999184;28;20456;-74
2022/12/06 02:14:26;;;;;;;10.20;6.20;;;5.40;86.90;;;;;;5001367;28;20537;-75
2022/12/06 02:17:07;;;;;;;8.87;5.40;;;5.40;86.90;;;;;;5011225;28;20193;-75
2022/12/06 02:19:58;;;;;;;8.50;5.57;;;5.40;86.80;;;;;;5006954;28;20491;-75
2022/12/06 02:22:32;;;;;;;13.27;5.60;;;5.40;86.60;;;;;;5006328;28;20413;-75
2022/12/06 02:25:06;;;;;;;9.23;5.90;;;5.40;86.90;;;;;;5009263;28;20428;-75
2022/12/06 02:27:50;;;;;;;9.90;6.53;;;5.40;86.90;;;;;;5011426;28;20417;-77
2022/12/06 02:30:43;;;;;;;9.57;5.30;;;5.40;86.90;;;;;;5006196;28;20951;-76
2022/12/06 02:33:29;;;;;;;9.97;5.77;;;5.40;87.00;;;;;;5008237;28;20425;-76
2022/12/06 02:36:08;;;;;;;10.93;5.60;;;5.40;87.00;;;;;;5007504;28;20474;-76
2022/12/06 02:38:46;;;;;;;12.63;6.63;;;5.40;87.00;;;;;;5003438;28;20460;-76
2022/12/06 02:41:19;;;;;;;8.80;5.50;;;5.40;86.90;;;;;;5008126;28;20432;-75
2022/12/06 02:43:52;;;;;;;7.43;5.50;;;5.40;86.80;;;;;;5013081;28;20432;-75
2022/12/06 02:46:21;;;;;;;11.00;5.77;;;5.30;86.60;;;;;;5010632;28;20416;-76
2022/12/06 02:48:50;;;;;;;6.97;5.33;;;5.30;86.90;;;;;;5013313;28;20481;-74
2022/12/06 02:51:17;;;;;;;9.33;6.57;;;5.30;86.80;;;;;;5024283;28;20420;-75
2022/12/06 02:53:47;;;;;;;9.90;5.47;;;5.30;86.60;;;;;;5023787;28;20429;-75
2022/12/06 02:56:16;;;;;;;11.10;6.77;;;5.30;86.50;;;;;;5028872;28;20461;-75
2022/12/06 02:58:41;;;;;;;22.10;12.40;;;5.30;86.60;;;;;;5023130;28;20475;-74
2022/12/06 03:01:20;;;;;;;16.47;9.40;;;5.10;87.70;;;;;;5030117;28;20425;-77
2022/12/06 03:04:13;;;;;;;13.87;8.80;;;5.00;88.60;;;;;;5027090;28;20305;-73
2022/12/06 03:07:08;;;;;;;9.93;6.80;;;5.00;89.00;;;;;;5020923;28;20425;-73
2022/12/06 03:10:02;;;;;;;12.83;6.97;;;5.00;89.00;;;;;;5026488;28;20464;-74
2022/12/06 03:12:34;;;;;;;14.83;7.27;;;5.00;89.00;;;;;;5027751;28;21132;-74
2022/12/06 03:15:11;;;;;;;19.60;10.80;;;5.00;88.90;;;;;;5014691;28;20491;-74
2022/12/06 03:17:59;;;;;;;25.10;11.80;;;5.00;89.00;;;;;;5008127;28;20781;-74
2022/12/06 03:20:33;;;;;;;21.90;11.70;;;5.00;89.60;;;;;;5007304;28;20475;-74
2022/12/06 03:23:03;;;;;;;26.50;13.23;;;5.10;90.10;;;;;;5007247;28;21039;-74
2022/12/06 03:25:32;;;;;;;28.97;14.47;;;5.00;90.10;;;;;;5004711;28;20583;-74
2022/12/06 03:28:01;;;;;;;23.37;13.80;;;4.80;90.60;;;;;;5005345;28;20559;-73
2022/12/06 03:30:30;;;;;;;27.03;14.83;;;4.60;91.40;;;;;;5007586;28;20409;-74
2022/12/06 03:32:56;;;;;;;25.03;14.23;;;4.50;91.70;;;;;;5004158;28;20425;-75
2022/12/06 03:35:30;;;;;;;24.17;12.97;;;4.60;91.80;;;;;;5005989;28;20464;-76
2022/12/06 03:38:02;;;;;;;24.90;11.97;;;4.70;91.90;;;;;;4998024;28;20619;-75
2022/12/06 03:40:32;;;;;;;22.77;13.33;;;4.90;91.90;;;;;;5005147;28;20499;-73
2022/12/06 03:42:59;;;;;;;27.13;13.03;;;5.00;91.50;;;;;;4997199;28;20798;-75
2022/12/06 03:45:34;;;;;;;18.00;11.17;;;4.90;91.20;;;;;;5003914;28;20425;-75
2022/12/06 03:48:32;;;;;;;20.00;11.80;;;5.00;91.30;;;;;;4998848;28;20471;-75
2022/12/06 03:51:03;;;;;;;27.37;13.70;;;5.10;91.10;;;;;;4994455;28;20908;-74
2022/12/06 03:53:30;;;;;;;28.27;13.00;;;5.10;90.80;;;;;;5001258;28;20427;-73
2022/12/06 03:55:55;;;;;;;27.97;13.73;;;5.00;90.70;;;;;;5000950;28;20978;-76
2022/12/06 03:58:21;;;;;;;27.70;13.73;;;4.90;90.70;;;;;;5004860;28;20485;-75
2022/12/06 04:00:46;;;;;;;25.13;12.97;;;4.80;90.70;;;;;;5009884;28;20212;-76
2022/12/06 04:03:12;;;;;;;23.00;12.70;;;4.70;90.90;;;;;;5008639;28;20185;-76
2022/12/06 04:05:38;;;;;;;24.30;12.30;;;4.70;91.00;;;;;;5003247;28;20205;-75
2022/12/06 04:08:04;;;;;;;22.20;13.40;;;4.70;91.10;;;;;;5002183;28;20205;-74
2022/12/06 04:10:29;;;;;;;25.10;13.40;;;4.70;91.20;;;;;;5010208;28;20186;-76
2022/12/06 04:13:01;;;;;;;29.73;12.57;;;4.60;91.30;;;;;;5002147;28;20915;-76
2022/12/06 04:15:32;;;;;;;19.83;12.67;;;4.70;91.50;;;;;;5002767;28;20208;-76
2022/12/06 04:18:14;;;;;;;26.90;13.60;;;4.80;91.30;;;;;;5005050;28;20556;-75
2022/12/06 04:23:42;;;;;;;23.67;12.70;;;4.90;91.20;;;;;;5010957;28;20819;-76
2022/12/06 04:26:10;;;;;;;23.67;12.87;;;5.10;91.00;;;;;;5002073;28;20511;-74
2022/12/06 04:39:34;;;;;;;17.70;11.60;;;5.20;90.50;;;;;;4997600;28;20843;-74
2022/12/06 04:44:49;;;;;;;13.93;8.63;;;5.30;90.30;;;;;;4979780;28;20921;-74
2022/12/06 04:47:14;;;;;;;18.07;9.43;;;5.30;90.00;;;;;;5007902;28;20405;-74
2022/12/06 04:49:40;;;;;;;16.73;9.80;;;5.40;89.60;;;;;;5005856;28;20673;-75
2022/12/06 04:52:07;;;;;;;13.17;8.47;;;5.30;89.60;;;;;;5007445;28;20182;-76
2022/12/06 04:54:33;;;;;;;14.23;7.87;;;5.40;89.60;;;;;;5009233;28;20427;-75
2022/12/06 04:56:59;;;;;;;13.60;8.03;;;5.30;89.20;;;;;;5010984;28;20808;-74
2022/12/06 04:59:26;;;;;;;13.70;8.07;;;5.30;89.30;;;;;;5007013;28;21024;-76
2022/12/06 05:01:52;;;;;;;14.47;7.87;;;5.30;89.30;;;;;;5005739;28;20177;-75
2022/12/06 05:04:18;;;;;;;15.10;8.33;;;5.30;89.50;;;;;;5010753;28;20487;-74
2022/12/06 05:06:44;;;;;;;13.67;8.43;;;5.40;89.50;;;;;;5011311;28;20408;-76
2022/12/06 05:09:10;;;;;;;14.17;9.07;;;5.40;89.30;;;;;;5006103;28;20463;-76
2022/12/06 05:11:36;;;;;;;14.87;8.47;;;5.30;89.00;;;;;;5012174;28;20448;-76
2022/12/06 05:14:01;;;;;;;15.93;8.17;;;5.20;89.20;;;;;;5008137;28;20464;-74
2022/12/06 05:16:27;;;;;;;13.70;8.10;;;5.20;89.30;;;;;;5009834;28;20696;-74
2022/12/06 05:18:53;;;;;;;14.30;9.00;;;5.20;89.30;;;;;;5012534;28;20213;-76
2022/12/06 05:21:21;;;;;;;11.80;8.07;;;5.20;89.30;;;;;;5026253;28;20182;-75
2022/12/06 05:23:47;;;;;;;15.63;8.90;;;5.30;89.50;;;;;;5029078;28;20177;-74
2022/12/06 05:26:16;;;;;;;15.37;9.03;;;5.30;89.50;;;;;;5028368;28;20420;-75
2022/12/06 05:28:43;;;;;;;18.30;11.33;;;5.30;89.50;;;;;;5013185;28;20602;-74
2022/12/06 05:31:09;;;;;;;13.50;8.70;;;5.20;89.30;;;;;;5010181;28;20533;-74
2022/12/06 05:33:34;;;;;;;14.87;8.67;;;5.10;89.30;;;;;;5015639;28;20543;-75
2022/12/06 05:36:09;;;;;;;16.40;9.10;;;5.10;89.30;;;;;;5009108;28;20296;-75
2022/12/06 05:38:35;;;;;;;17.73;9.93;;;5.00;88.90;;;;;;5006808;28;20482;-75
2022/12/06 05:41:01;;;;;;;16.50;9.03;;;5.00;89.00;;;;;;5008771;28;20484;-76
2022/12/06 05:43:28;;;;;;;14.47;8.07;;;4.90;88.60;;;;;;5012335;28;20716;-76
2022/12/06 05:45:54;;;;;;;15.20;7.67;;;5.00;88.60;;;;;;5006507;28;20920;-75
2022/12/06 05:48:21;;;;;;;12.63;8.00;;;5.10;88.70;;;;;;5005950;28;20468;-73
2022/12/06 05:50:47;;;;;;;14.33;7.53;;;5.30;88.10;;;;;;5011729;28;20555;-74
2022/12/06 05:53:14;;;;;;;16.10;8.53;;;5.20;87.40;;;;;;5008832;28;20548;-73
2022/12/06 05:55:40;;;;;;;11.23;6.70;;;5.10;87.00;;;;;;5011098;28;20456;-73
2022/12/06 05:58:05;;;;;;;11.77;6.53;;;5.10;87.00;;;;;;5004622;28;20556;-75
2022/12/06 06:00:31;;;;;;;10.63;6.63;;;5.20;86.80;;;;;;5004766;28;20433;-74
2022/12/06 06:02:57;;;;;;;11.97;6.97;;;5.30;86.30;;;;;;5006759;28;20256;-74
2022/12/06 06:05:22;;;;;;;9.63;6.13;;;5.30;85.70;;;;;;5007312;28;20187;-73
2022/12/06 06:07:48;;;;;;;11.93;6.40;;;5.20;85.60;;;;;;5006622;28;20236;-74
2022/12/06 06:10:14;;;;;;;13.10;7.20;;;5.30;85.70;;;;;;5006255;28;20201;-74
2022/12/06 06:12:41;;;;;;;12.57;7.10;;;5.20;85.70;;;;;;5005416;28;20272;-76
2022/12/06 06:15:07;;;;;;;10.40;6.00;;;5.20;85.70;;;;;;5010213;28;20475;-75
2022/12/06 06:17:33;;;;;;;8.40;6.20;;;5.30;85.50;;;;;;5009995;28;20417;-74
2022/12/06 06:20:03;;;;;;;10.90;5.60;;;5.30;85.20;;;;;;5005749;28;20476;-75
2022/12/06 06:22:33;;;;;;;10.53;5.60;;;5.30;84.70;;;;;;5005593;28;20532;-74
2022/12/06 06:24:59;;;;;;;9.47;5.60;;;5.20;84.30;;;;;;5009166;28;20444;-75
2022/12/06 06:27:25;;;;;;;11.47;5.83;;;5.10;84.40;;;;;;5009301;28;20430;-75
2022/12/06 06:29:50;;;;;;;12.70;6.20;;;5.10;84.70;;;;;;5007517;28;20471;-75
2022/12/06 06:32:16;;;;;;;8.97;5.87;;;5.10;84.60;;;;;;5005797;28;20436;-74
2022/12/06 06:34:42;;;;;;;10.03;5.73;;;5.20;84.10;;;;;;5009750;28;20896;-74
2022/12/06 06:37:07;;;;;;;13.87;6.70;;;5.30;83.80;;;;;;5009243;28;20245;-74
2022/12/06 06:39:33;;;;;;;9.00;5.80;;;5.30;83.40;;;;;;4966396;28;1206090;-75
2022/12/06 06:41:58;;;;;;;10.80;6.20;;;5.30;83.40;;;;;;5012337;28;20236;-74
2022/12/06 06:44:24;;;;;;;13.67;6.23;;;5.30;83.30;;;;;;5006132;28;20201;-74
2022/12/06 06:46:49;;;;;;;10.40;5.97;;;5.20;83.30;;;;;;5012777;28;20189;-74
2022/12/06 06:49:16;;;;;;;8.70;6.00;;;5.20;83.40;;;;;;5009458;28;20209;-74
2022/12/06 06:51:42;;;;;;;10.00;5.67;;;5.10;83.40;;;;;;5011187;28;20185;-75
2022/12/06 06:54:07;;;;;;;12.50;6.10;;;5.20;83.40;;;;;;5013536;28;20480;-74
2022/12/06 06:56:33;;;;;;;11.77;6.37;;;5.30;82.80;;;;;;5008946;28;20203;-75
2022/12/06 06:58:59;;;;;;;11.83;6.10;;;5.20;82.40;;;;;;5012257;28;20218;-74
2022/12/06 07:01:26;;;;;;;8.33;5.40;;;5.00;82.70;;;;;;5009292;28;20186;-74
2022/12/06 07:03:52;;;;;;;16.00;6.27;;;5.00;83.30;;;;;;5005149;28;20182;-75
2022/12/06 07:06:18;;;;;;;14.47;6.33;;;5.00;83.60;;;;;;5010502;28;20479;-75
2022/12/06 07:08:45;;;;;;;11.83;5.50;;;4.90;83.80;;;;;;5016561;28;20705;-75
2022/12/06 07:11:11;;;;;;;11.50;6.00;;;5.10;84.10;;;;;;5013951;28;20576;-74
2022/12/06 07:13:38;;;;;;;7.00;4.90;;;5.20;83.30;;;;;;5014516;28;20421;-74
2022/12/06 07:16:06;;;;;;;11.20;5.70;;;5.30;82.70;;;;;;5007357;28;20477;-75
2022/12/06 07:18:32;;;;;;;10.43;6.17;;;5.30;82.40;;;;;;5006760;28;20453;-74
2022/12/06 07:21:03;;;;;;;7.87;5.20;;;5.30;81.90;;;;;;5012944;28;20425;-75
2022/12/06 07:23:31;;;;;;;10.30;5.87;;;5.30;81.90;;;;;;5012976;28;20488;-75
2022/12/06 07:26:11;;;;;;;10.10;6.17;;;5.40;81.90;;;;;;5009825;28;20457;-75
2022/12/06 07:28:39;;;;;;;11.87;5.83;;;5.30;81.90;;;;;;5012229;28;20487;-74
2022/12/06 07:31:10;;;;;;;9.30;6.10;;;5.50;82.10;;;;;;5013963;28;20421;-74
2022/12/06 07:33:36;;;;;;;9.37;5.93;;;5.60;81.90;;;;;;5015796;28;20444;-74
2022/12/06 07:36:02;;;;;;;7.93;5.53;;;5.60;81.70;;;;;;5021404;28;20468;-74
2022/12/06 07:38:27;;;;;;;14.40;6.90;;;5.50;82.20;;;;;;5017589;28;20491;-75
2022/12/06 07:40:53;;;;;;;11.97;6.40;;;5.60;82.70;;;;;;5015202;28;20205;-75
2022/12/06 07:46:08;;;;;;;12.40;6.37;;;5.60;82.80;;;;;;5005692;28;20201;-74
2022/12/06 07:48:34;;;;;;;11.70;6.80;;;5.70;82.80;;;;;;5001778;28;20453;-74
2022/12/06 07:51:03;;;;;;;14.77;7.37;;;5.80;82.70;;;;;;5004646;28;20421;-74
2022/12/06 07:53:29;;;;;;;17.37;9.60;;;5.80;82.70;;;;;;5018215;28;20244;-74
2022/12/06 07:55:55;;;;;;;18.03;8.40;;;5.90;83.10;;;;;;5007844;28;20777;-74
2022/12/06 07:58:20;;;;;;;20.03;9.70;;;6.00;83.60;;;;;;5010569;28;20203;-74
2022/12/06 08:00:46;;;;;;;14.73;8.97;;;6.10;83.70;;;;;;5005321;28;20190;-74
2022/12/06 08:03:11;;;;;;;17.63;9.20;;;6.00;83.60;;;;;;5007453;28;20251;-75
2022/12/06 08:05:37;;;;;;;16.80;9.20;;;6.00;83.80;;;;;;5005621;28;20558;-74
2022/12/06 08:08:03;;;;;;;18.30;8.50;;;6.00;83.80;;;;;;5004800;28;20220;-76
2022/12/06 08:10:28;;;;;;;16.37;9.03;;;5.90;84.00;;;;;;5003804;28;20275;-75
2022/12/06 08:12:54;;;;;;;15.70;8.37;;;5.90;84.30;;;;;;5009301;28;20189;-75
2022/12/06 08:15:19;;;;;;;12.40;6.30;;;5.80;84.40;;;;;;5010187;28;20213;-74
2022/12/06 08:17:45;;;;;;;15.87;7.00;;;5.70;82.80;;;;;;5011700;28;20222;-74
2022/12/06 08:20:11;;;;;;;10.97;6.77;;;5.80;82.40;;;;;;5001923;28;20209;-74
2022/12/06 08:22:37;;;;;;;9.70;5.50;;;5.80;82.40;;;;;;4998612;28;20204;-75
2022/12/06 08:25:03;;;;;;;10.60;6.20;;;5.90;81.80;;;;;;5004755;28;20440;-74
2022/12/06 08:27:28;;;;;;;10.10;6.60;;;5.60;80.60;;;;;;5000670;28;20289;-75
2022/12/06 08:29:54;;;;;;;13.43;6.83;;;5.60;81.10;;;;;;5000854;28;20214;-74
2022/12/06 08:32:19;;;;;;;12.67;6.37;;;5.50;81.70;;;;;;5003066;28;20186;-75
2022/12/06 08:34:45;;;;;;;11.37;6.57;;;5.60;81.20;;;;;;5009221;28;20193;-75
2022/12/06 08:37:11;;;;;;;14.30;7.00;;;5.60;81.20;;;;;;5003592;28;20177;-75
2022/12/06 08:39:37;;;;;;;11.87;6.60;;;5.60;81.20;;;;;;5006151;28;20238;-74
2022/12/06 08:42:05;;;;;;;12.63;6.37;;;5.60;81.50;;;;;;5007842;28;20417;-74
2022/12/06 08:44:31;;;;;;;10.27;6.80;;;5.60;81.90;;;;;;5004339;28;20440;-75
2022/12/06 08:46:59;;;;;;;16.93;6.90;;;5.70;81.90;;;;;;5005529;28;20454;-74
2022/12/06 08:49:26;;;;;;;11.50;6.60;;;5.60;82.10;;;;;;5005734;28;20483;-74
2022/12/06 08:51:52;;;;;;;14.03;6.60;;;5.60;82.70;;;;;;5007514;28;20456;-76
2022/12/06 08:54:20;;;;;;;13.37;6.83;;;5.40;82.50;;;;;;5003996;28;20460;-75
2022/12/06 08:56:46;;;;;;;14.83;7.67;;;5.10;84.40;;;;;;5005416;28;20699;-75
2022/12/06 08:59:12;;;;;;;15.10;7.30;;;5.00;85.20;;;;;;5002749;28;20465;-75
2022/12/06 09:01:38;;;;;;;14.77;7.60;;;5.10;85.30;;;;;;5007367;28;20597;-75
2022/12/06 09:04:06;;;;;;;11.70;7.27;;;5.10;85.30;;;;;;5006468;28;20240;-75
2022/12/06 09:06:32;;;;;;;15.17;8.73;;;5.20;85.50;;;;;;5005523;28;20482;-75
2022/12/06 09:08:57;;;;;;;12.07;7.87;;;5.30;85.50;;;;;;5000998;28;20896;-75
2022/12/06 09:11:24;;;;;;;13.93;7.70;;;5.30;85.50;;;;;;5006443;28;20248;-75
2022/12/06 09:13:50;;;;;;;17.20;7.83;;;5.30;85.30;;;;;;5005484;28;20269;-75
2022/12/06 09:16:22;;;;;;;18.10;8.60;;;5.20;85.50;;;;;;5009286;28;20461;-75
2022/12/06 09:18:48;;;;;;;15.03;8.57;;;5.10;85.70;;;;;;5007725;28;20839;-75
2022/12/06 09:21:17;;;;;;;15.97;9.10;;;5.00;86.50;;;;;;5008960;28;20425;-75
2022/12/06 09:23:43;;;;;;;15.97;9.17;;;5.10;86.80;;;;;;5002629;28;20208;-75
2022/12/06 09:26:08;;;;;;;17.57;9.30;;;5.00;86.90;;;;;;5007282;28;20911;-75
2022/12/06 09:28:36;;;;;;;18.07;9.10;;;5.00;87.30;;;;;;5003643;28;20982;-75
2022/12/06 09:31:02;;;;;;;16.87;8.77;;;5.10;87.60;;;;;;5005720;28;20935;-76
2022/12/06 09:33:28;;;;;;;16.80;9.13;;;5.10;87.30;;;;;;5006576;28;20417;-75
2022/12/06 09:35:54;;;;;;;15.60;9.67;;;5.00;87.30;;;;;;5006052;28;20464;-76
2022/12/06 09:38:23;;;;;;;18.37;10.03;;;4.80;87.40;;;;;;5002823;28;20210;-75
2022/12/06 09:41:13;;;;;;;17.90;9.20;;;4.80;88.00;;;;;;5008884;28;20441;-75
2022/12/06 09:44:08;;;;;;;15.70;9.20;;;4.80;88.30;;;;;;5004310;28;20421;-74
2022/12/06 09:47:04;;;;;;;17.27;10.20;;;5.00;88.10;;;;;;5002301;28;20516;-76
2022/12/06 09:50:07;;;;;;;18.40;10.67;;;5.00;87.70;;;;;;5001824;28;20460;-76
2022/12/06 09:52:41;;;;;;;23.47;11.87;;;5.00;87.80;;;;;;5005346;28;20786;-76
2022/12/06 09:55:07;;;;;;;24.53;12.70;;;5.00;88.00;;;;;;5008487;28;20471;-76
2022/12/06 09:57:41;;;;;;;19.40;11.10;;;5.00;88.30;;;;;;5003148;28;20575;-75
2022/12/06 10:00:12;;;;;;;20.73;12.03;;;5.00;88.30;;;;;;5008335;28;20185;-75
2022/12/06 10:02:47;;;;;;;21.90;11.10;;;5.20;88.30;;;;;;5007160;28;20409;-74
2022/12/06 10:05:24;;;;;;;24.03;10.40;;;5.30;88.10;;;;;;5003829;28;20432;-75
2022/12/06 10:07:54;;;;;;;26.43;11.53;;;5.40;87.40;;;;;;5008384;28;20471;-75
2022/12/06 10:10:38;;;;;;;23.20;11.70;;;5.20;87.00;;;;;;5008514;28;20429;-74
2022/12/06 10:13:20;;;;;;;22.17;11.80;;;5.20;88.40;;;;;;5010936;28;20932;-75
2022/12/06 10:15:51;;;;;;;24.50;14.57;;;5.20;88.30;;;;;;5006553;28;20457;-74
2022/12/06 10:18:47;;;;;;;23.27;13.20;;;5.10;88.10;;;;;;5018685;28;20452;-74
2022/12/06 10:21:32;;;;;;;23.87;12.40;;;5.00;88.90;;;;;;5016822;28;20412;-74
2022/12/06 10:24:32;;;;;;;23.27;12.20;;;5.20;89.00;;;;;;5004571;28;20512;-74
2022/12/06 10:27:22;;;;;;;21.20;11.63;;;5.20;88.60;;;;;;4950189;28;20436;-75
2022/12/06 10:30:16;;;;;;;29.87;13.80;;;5.20;87.70;;;;;;4948764;28;20468;-76
2022/12/06 10:33:04;;;;;;;27.40;12.70;;;5.20;87.70;;;;;;4934658;29;20424;-75
2022/12/06 10:36:08;;;;;;;24.50;13.10;;;5.40;87.80;;;;;;4956426;28;21107;-75
2022/12/06 10:38:44;;;;;;;26.70;11.93;;;5.30;86.90;;;;;;4948621;28;20474;-75
2022/12/06 10:41:21;;;;;;;26.23;13.00;;;5.20;87.60;;;;;;4947022;28;20444;-75
2022/12/06 10:44:05;;;;;;;20.77;12.43;;;5.30;87.70;;;;;;4946364;28;20510;-75
2022/12/06 10:47:05;;;;;;;26.30;12.43;;;5.30;87.60;;;;;;4950032;28;20527;-76
2022/12/06 10:50:04;;;;;;;23.87;11.77;;;5.30;87.00;;;;;;4948645;28;20549;-75
2022/12/06 10:52:44;;;;;;;21.43;12.23;;;5.40;86.90;;;;;;4949619;28;20431;-75
2022/12/06 10:55:10;;;;;;;23.70;11.60;;;5.40;87.00;;;;;;4947241;28;20477;-76
2022/12/06 10:57:44;;;;;;;25.13;12.00;;;5.20;87.60;;;;;;4949318;28;20514;-75
2022/12/06 11:00:13;;;;;;;29.50;14.27;;;5.30;87.80;;;;;;4950390;28;20562;-75
2022/12/06 11:03:02;;;;;;;23.30;12.20;;;5.30;87.70;;;;;;4983341;28;20464;-75
2022/12/06 11:05:40;;;;;;;30.57;12.90;;;5.20;87.80;;;;;;5005691;28;20863;-75
2022/12/06 11:08:11;;;;;;;26.97;12.90;;;5.20;88.40;;;;;;5004487;28;20507;-75
2022/12/06 11:10:38;;;;;;;20.80;11.27;;;5.20;88.40;;;;;;5007418;28;20584;-76
2022/12/06 11:13:36;;;;;;;27.83;10.83;;;5.20;88.10;;;;;;5001561;28;20428;-74
2022/12/06 11:16:15;;;;;;;22.80;9.73;;;5.20;88.10;;;;;;4994807;28;21342;-75
2022/12/06 11:18:42;;;;;;;20.43;9.90;;;5.40;87.80;;;;;;5009025;28;20471;-74
2022/12/06 11:21:39;;;;;;;22.77;9.60;;;5.10;87.60;;;;;;5007340;28;20420;-75
2022/12/06 11:24:15;;;;;;;22.47;9.80;;;5.00;88.40;;;;;;5004978;28;20474;-74
2022/12/06 11:26:44;;;;;;;18.63;10.67;;;5.10;88.70;;;;;;5005838;28;20420;-75
2022/12/06 11:29:12;;;;;;;24.70;10.40;;;5.10;88.40;;;;;;5007024;28;20801;-76
2022/12/06 11:31:50;;;;;;;18.70;9.97;;;5.20;88.60;;;;;;5003691;28;20432;-76
2022/12/06 11:34:30;;;;;;;21.20;10.37;;;5.20;88.60;;;;;;5005533;28;20428;-75
2022/12/06 11:36:57;;;;;;;20.27;9.90;;;5.10;89.00;;;;;;5007397;28;20468;-74
2022/12/06 11:39:23;;;;;;;21.10;10.77;;;5.20;89.20;;;;;;5002440;28;20453;-76
2022/12/06 11:41:53;;;;;;;18.93;9.90;;;5.10;89.30;;;;;;5008900;28;20608;-75
2022/12/06 11:44:37;;;;;;;21.87;10.50;;;5.20;89.60;;;;;;5010061;28;20417;-76
2022/12/06 11:47:04;;;;;;;20.03;9.50;;;4.90;90.10;;;;;;5010049;28;20831;-75
2022/12/06 11:49:38;;;;;;;22.30;9.40;;;4.90;90.80;;;;;;5008449;28;20963;-76
2022/12/06 11:52:12;;;;;;;24.50;10.00;;;4.80;90.90;;;;;;4995573;28;20892;-75
2022/12/06 11:54:42;;;;;;;16.77;8.57;;;5.00;91.10;;;;;;5003492;28;20451;-75
2022/12/06 11:57:37;;;;;;;17.93;8.63;;;4.80;90.80;;;;;;5007373;28;20484;-74
2022/12/06 12:00:17;;;;;;;23.70;9.33;;;4.80;91.20;;;;;;4964078;28;20483;-75
2022/12/06 12:02:45;;;;;;;15.50;7.93;;;4.80;91.30;;;;;;4968040;28;20470;-74
2022/12/06 12:05:18;;;;;;;13.90;7.47;;;4.80;91.50;;;;;;4968562;28;20490;-75
2022/12/06 12:07:55;;;;;;;16.63;8.20;;;5.00;91.40;;;;;;4961909;28;20430;-75
2022/12/06 12:10:25;;;;;;;15.90;7.93;;;5.00;91.00;;;;;;4962681;28;20521;-75
2022/12/06 12:15:38;;;;;;;18.50;7.30;;;5.00;90.90;;;;;;4968854;28;20461;-74
2022/12/06 12:18:05;;;;;;;15.90;7.33;;;5.00;90.80;;;;;;4965738;28;20474;-74
2022/12/06 12:20:36;;;;;;;17.50;8.17;;;4.90;90.70;;;;;;4967666;28;20423;-75
2022/12/06 12:23:17;;;;;;;19.70;9.37;;;4.80;90.90;;;;;;4963355;28;20427;-75
2022/12/06 12:26:17;;;;;;;16.03;6.93;;;5.00;91.10;;;;;;4963142;28;20429;-75
2022/12/06 12:28:45;;;;;;;14.00;6.27;;;4.80;90.80;;;;;;4960283;28;20516;-74
2022/12/06 12:31:20;;;;;;;14.80;6.50;;;4.80;90.80;;;;;;4945620;28;20992;-74
2022/12/06 12:33:45;;;;;;;12.90;5.70;;;4.70;90.90;;;;;;4969080;28;20485;-74
2022/12/06 12:36:29;;;;;;;13.80;5.30;;;4.70;91.00;;;;;;4978550;28;20588;-74
2022/12/06 12:38:59;;;;;;;9.23;4.40;;;4.70;90.90;;;;;;5006443;28;20206;-74
2022/12/06 12:41:31;;;;;;;8.80;4.17;;;4.70;90.90;;;;;;5008350;28;20437;-75
2022/12/06 12:44:20;;;;;;;9.20;4.70;;;4.80;90.90;;;;;;5009804;28;20942;-75
2022/12/06 12:47:01;;;;;;;8.67;4.57;;;4.70;90.60;;;;;;5010514;28;20819;-74
2022/12/06 12:49:32;;;;;;;6.93;3.97;;;4.80;90.70;;;;;;5006169;28;20456;-75
2022/12/06 12:52:00;;;;;;;7.93;4.47;;;4.70;90.50;;;;;;5005721;28;20527;-74
2022/12/06 12:54:32;;;;;;;7.37;4.60;;;4.70;90.60;;;;;;5008259;28;20440;-75
2022/12/06 12:57:00;;;;;;;9.70;4.80;;;4.70;90.60;;;;;;5007748;28;20452;-74
2022/12/06 12:59:31;;;;;;;9.50;4.60;;;4.60;90.90;;;;;;5003725;28;20487;-75
2022/12/06 13:02:15;;;;;;;9.33;4.73;;;4.70;90.70;;;;;;5010406;28;20428;-75
2022/12/06 13:04:45;;;;;;;11.00;4.80;;;4.70;90.90;;;;;;5003935;28;20413;-75
2022/12/06 13:07:22;;;;;;;8.67;4.77;;;4.70;90.80;;;;;;5004008;28;20420;-75
2022/12/06 13:09:53;;;;;;;9.20;4.70;;;4.80;90.90;;;;;;5006644;28;20533;-74
2022/12/06 13:12:41;;;;;;;12.90;5.50;;;4.70;90.50;;;;;;5001459;28;20422;-75
2022/12/06 13:15:30;;;;;;;9.40;4.70;;;4.80;90.50;;;;;;5012387;28;20444;-75
2022/12/06 13:18:16;;;;;;;12.90;5.27;;;4.80;90.40;;;;;;5007173;28;20833;-75
2022/12/06 13:20:43;;;;;;;8.50;5.37;;;5.00;90.50;;;;;;5005654;28;20470;-75
2022/12/06 13:23:17;;;;;;;12.13;5.80;;;5.00;90.20;;;;;;5013107;28;20421;-75
2022/12/06 13:25:50;;;;;;;7.83;4.37;;;5.00;90.00;;;;;;5012502;28;20430;-74
2022/12/06 13:28:21;;;;;;;10.07;5.03;;;5.00;90.10;;;;;;5009224;28;20497;-76